Time;durP1;ratioP1;P1;durP2;ratioP2;P2;SDS_P1;SDS_P2;PMS_P1;PMS_P2;Temp;Humidity;BMP_temperature;BMP_pressure;BME280_temperature;BME280_humidity;BME280_pressure;Samples;Min_cycle;Max_cycle;Signal;HPM_P1;HPM_P2
2022/06/06 00:00:51;;;;;;;12.90;7.22;;;;;;;17.22;65.67;101297.28;5167489;28;20865;-54
2022/06/06 00:03:25;;;;;;;12.85;8.23;;;;;;;17.19;65.69;101305.66;5164969;28;20504;-53
2022/06/06 00:05:58;;;;;;;14.37;9.77;;;;;;;17.09;66.12;101310.38;5173361;28;20816;-54
2022/06/06 00:08:30;;;;;;;26.45;13.88;;;;;;;17.04;66.05;101305.59;5165627;28;20449;-51
2022/06/06 00:11:04;;;;;;;26.90;14.10;;;;;;;17.01;66.18;101306.78;5170108;28;20535;-53
2022/06/06 00:13:37;;;;;;;28.73;16.60;;;;;;;16.91;66.02;101295.56;5171359;28;20892;-51
2022/06/06 00:16:10;;;;;;;35.10;19.38;;;;;;;17.00;65.88;101298.97;5177826;28;20431;-56
2022/06/06 00:18:45;;;;;;;34.67;21.08;;;;;;;16.99;65.98;101297.31;5172153;28;20533;-53
2022/06/06 00:21:17;;;;;;;33.72;18.67;;;;;;;17.01;65.83;101300.63;5173235;28;20511;-55
2022/06/06 00:23:49;;;;;;;34.17;19.20;;;;;;;16.96;65.84;101301.16;5169344;28;20992;-55
2022/06/06 00:26:22;;;;;;;35.55;20.10;;;;;;;16.93;65.98;101293.50;5168934;28;22052;-55
2022/06/06 00:28:57;;;;;;;31.95;18.60;;;;;;;16.87;66.01;101288.91;5170237;28;20458;-53
2022/06/06 00:37:14;;;;;;;36.72;19.75;;;;;;;16.77;65.95;101280.31;5171230;28;20417;-52
2022/06/06 00:39:48;;;;;;;42.17;20.67;;;;;;;16.79;65.91;101276.47;5182143;28;20407;-52
2022/06/06 00:42:25;;;;;;;37.15;19.42;;;;;;;16.72;65.98;101275.50;5169801;28;20893;-50
2022/06/06 00:45:30;;;;;;;39.22;20.75;;;;;;;16.73;65.98;101281.69;5168733;28;20942;-54
2022/06/06 00:48:18;;;;;;;37.88;20.83;;;;;;;16.74;65.85;101289.47;5168869;28;20404;-53
2022/06/06 00:51:01;;;;;;;36.27;19.20;;;;;;;16.71;65.88;101289.00;5169675;28;20426;-52
2022/06/06 00:53:38;;;;;;;35.42;17.42;;;;;;;16.67;65.86;101282.38;5170577;28;20750;-55
2022/06/06 00:56:19;;;;;;;33.45;17.75;;;;;;;16.63;65.96;101275.72;5171672;28;20742;-53
2022/06/06 00:58:55;;;;;;;34.60;16.00;;;;;;;16.65;65.93;101279.88;5174037;28;20866;-53
2022/06/06 01:01:31;;;;;;;28.00;14.63;;;;;;;16.58;65.87;101269.09;5174783;28;20893;-55
2022/06/06 01:04:05;;;;;;;31.85;15.55;;;;;;;16.59;65.90;101269.94;5175195;28;20442;-56
2022/06/06 01:06:42;;;;;;;26.98;14.85;;;;;;;16.56;65.86;101260.44;5173632;28;20425;-54
2022/06/06 01:09:17;;;;;;;29.90;15.85;;;;;;;16.59;65.85;101268.09;5173374;28;20482;-52
2022/06/06 01:11:52;;;;;;;31.90;15.30;;;;;;;16.58;65.86;101263.78;5169479;28;20472;-56
2022/06/06 01:14:28;;;;;;;27.25;14.70;;;;;;;16.64;65.61;101272.91;5170243;28;20477;-55
2022/06/06 01:17:04;;;;;;;33.25;15.63;;;;;;;16.66;65.68;101270.03;5167496;28;20417;-53
2022/06/06 01:20:02;;;;;;;26.73;13.82;;;;;;;16.70;65.56;101266.03;5169924;28;20837;-52
2022/06/06 01:23:20;;;;;;;24.77;12.95;;;;;;;16.68;65.54;101268.03;5156950;28;20425;-54
2022/06/06 01:26:17;;;;;;;25.30;12.82;;;;;;;16.63;65.55;101262.41;5169667;28;20788;-53
2022/06/06 01:29:05;;;;;;;24.20;13.27;;;;;;;16.51;65.64;101257.50;5169313;28;20513;-54
2022/06/06 01:31:43;;;;;;;26.47;13.03;;;;;;;16.58;65.72;101258.44;5168276;28;20432;-53
2022/06/06 01:34:26;;;;;;;24.45;13.13;;;;;;;16.56;65.68;101254.28;5181033;28;20901;-54
2022/06/06 01:37:00;;;;;;;27.27;13.30;;;;;;;16.01;65.63;101173.59;5169249;28;20431;-56
2022/06/06 01:39:33;;;;;;;24.27;12.95;;;;;;;16.59;65.55;101259.28;5170855;28;20427;-54
2022/06/06 01:42:13;;;;;;;22.10;12.35;;;;;;;16.57;65.60;101256.78;5173201;28;20775;-56
2022/06/06 01:44:53;;;;;;;23.20;12.93;;;;;;;16.54;65.59;101265.16;5178359;28;22897;-57
2022/06/06 01:47:29;;;;;;;27.05;13.20;;;;;;;16.51;65.73;101265.50;5170154;28;20412;-52
2022/06/06 01:50:04;;;;;;;22.52;12.25;;;;;;;16.48;65.72;101257.88;5169725;28;20501;-58
2022/06/06 01:52:54;;;;;;;25.00;13.02;;;;;;;16.47;65.67;101256.19;5174881;28;20431;-58
2022/06/06 01:55:28;;;;;;;23.83;13.43;;;;;;;16.47;65.63;101250.84;5172632;28;20475;-50
2022/06/06 01:58:06;;;;;;;23.10;12.43;;;;;;;16.51;65.66;101262.03;5176124;28;20797;-58
2022/06/06 02:00:41;;;;;;;25.98;12.27;;;;;;;16.53;65.54;101254.66;5178983;28;20416;-58
2022/06/06 02:03:14;;;;;;;22.58;12.00;;;;;;;16.55;65.50;101261.47;5177160;28;20431;-57
2022/06/06 02:05:46;;;;;;;25.40;11.23;;;;;;;16.47;65.54;101261.53;5167576;28;20905;-56
2022/06/06 02:08:19;;;;;;;26.00;11.80;;;;;;;16.53;65.56;101266.13;5171864;28;20875;-57
2022/06/06 02:10:51;;;;;;;28.83;12.93;;;;;;;16.54;65.51;101257.16;5168925;28;20429;-57
2022/06/06 02:13:25;;;;;;;26.55;12.10;;;;;;;16.54;65.50;101251.00;5167354;28;20427;-53
2022/06/06 02:16:00;;;;;;;20.05;10.98;;;;;;;16.50;65.51;101253.16;5165539;28;20796;-54
2022/06/06 02:18:33;;;;;;;22.08;11.05;;;;;;;16.46;65.53;101248.38;5173292;28;20417;-56
2022/06/06 02:21:07;;;;;;;19.75;10.07;;;;;;;16.48;65.54;101252.53;5169533;28;20421;-53
2022/06/06 02:23:40;;;;;;;19.63;10.82;;;;;;;16.45;65.48;101247.56;5169545;28;20920;-56
2022/06/06 02:26:12;;;;;;;19.83;9.77;;;;;;;16.46;65.42;101240.38;5174358;28;20510;-56
2022/06/06 02:28:45;;;;;;;23.52;11.18;;;;;;;16.51;65.41;101241.50;5173051;28;20473;-53
2022/06/06 02:31:19;;;;;;;16.50;10.02;;;;;;;16.44;65.49;101240.53;5171082;28;20832;-52
2022/06/06 02:33:52;;;;;;;23.23;10.80;;;;;;;16.37;65.55;101239.59;5170356;28;20450;-57
2022/06/06 02:36:24;;;;;;;15.23;10.15;;;;;;;16.35;65.63;101242.47;5171714;28;20781;-54
2022/06/06 02:38:56;;;;;;;21.08;11.07;;;;;;;16.32;65.54;101245.50;5165096;28;20423;-56
2022/06/06 02:41:29;;;;;;;22.13;11.73;;;;;;;16.32;65.64;101241.97;5169987;28;20541;-56
2022/06/06 02:44:01;;;;;;;22.80;12.18;;;;;;;16.33;65.57;101240.97;5175775;28;20775;-57
2022/06/06 02:46:35;;;;;;;20.33;10.80;;;;;;;16.33;65.68;101238.31;5171456;28;20789;-55
2022/06/06 02:49:10;;;;;;;23.00;12.68;;;;;;;16.32;65.61;101236.63;5175196;28;20433;-56
2022/06/06 02:51:43;;;;;;;22.33;13.55;;;;;;;16.31;65.50;101240.31;5170908;28;20513;-56
2022/06/06 02:54:15;;;;;;;22.77;13.18;;;;;;;16.28;65.72;101238.00;5166166;28;20416;-55
2022/06/06 02:56:48;;;;;;;28.50;14.05;;;;;;;16.20;65.97;101225.59;5166886;28;20408;-55
2022/06/06 02:59:22;;;;;;;26.42;13.20;;;;;;;16.19;65.78;101229.22;5173435;28;20850;-56
2022/06/06 03:01:56;;;;;;;24.10;12.68;;;;;;;16.13;65.76;101222.81;5171228;28;20401;-50
2022/06/06 03:04:28;;;;;;;24.15;12.82;;;;;;;16.07;65.77;101215.50;5163431;28;20526;-58
2022/06/06 03:07:14;;;;;;;20.30;11.60;;;;;;;16.12;65.84;101231.78;5176718;28;20494;-58
2022/06/06 03:09:59;;;;;;;27.20;11.37;;;;;;;16.09;65.84;101231.31;5176284;28;20488;-55
2022/06/06 03:12:47;;;;;;;24.42;12.32;;;;;;;15.96;65.83;101218.56;5171640;28;20451;-56
2022/06/06 03:15:41;;;;;;;23.63;11.30;;;;;;;16.08;65.62;101232.31;5173864;28;20920;-56
2022/06/06 03:21:27;;;;;;;26.33;13.63;;;;;;;16.02;65.91;101251.69;5167258;28;20411;-57
2022/06/06 03:24:26;;;;;;;27.50;13.73;;;;;;;16.10;65.57;101246.28;5164997;28;20431;-51
2022/06/06 03:27:16;;;;;;;25.20;13.45;;;;;;;16.10;65.74;101254.28;5165107;28;20423;-59
2022/06/06 03:30:02;;;;;;;25.80;14.15;;;;;;;16.08;65.60;101241.16;5171305;28;20405;-58
2022/06/06 03:32:49;;;;;;;27.05;13.80;;;;;;;15.95;65.70;101219.59;5167181;28;20494;-50
2022/06/06 03:35:35;;;;;;;22.40;11.90;;;;;;;16.01;65.69;101240.19;5180216;28;20428;-55
2022/06/06 03:38:13;;;;;;;19.35;11.85;;;;;;;16.06;65.68;101243.16;5169456;28;20427;-53
2022/06/06 03:40:57;;;;;;;21.42;12.05;;;;;;;16.06;65.60;101245.81;5169740;28;20419;-52
2022/06/06 03:43:44;;;;;;;21.33;12.25;;;;;;;16.06;65.67;101251.13;5169850;28;20443;-59
2022/06/06 03:46:29;;;;;;;27.77;13.33;;;;;;;16.06;65.53;101244.97;5178098;28;20418;-57
2022/06/06 03:49:16;;;;;;;21.30;12.10;;;;;;;16.07;65.69;101243.97;5169825;28;20413;-57
2022/06/06 03:52:04;;;;;;;26.38;12.15;;;;;;;16.10;65.48;101244.47;5173405;28;20412;-59
2022/06/06 03:54:51;;;;;;;23.77;12.05;;;;;;;16.12;65.46;101237.13;5168924;28;20444;-57
2022/06/06 03:57:28;;;;;;;22.47;13.50;;;;;;;16.03;65.47;101218.69;5179146;28;20416;-58
2022/06/06 04:00:06;;;;;;;26.92;14.23;;;;;;;16.14;65.54;101243.09;5170244;28;20507;-59
2022/06/06 04:02:42;;;;;;;24.38;13.38;;;;;;;16.07;65.50;101223.50;5171708;28;20431;-60
2022/06/06 04:05:17;;;;;;;25.90;13.75;;;;;;;16.16;65.42;101226.94;5170716;28;20444;-60
2022/06/06 04:07:51;;;;;;;34.63;14.90;;;;;;;16.26;65.31;101237.34;5171591;28;20474;-59
2022/06/06 04:10:30;;;;;;;30.95;14.35;;;;;;;16.31;65.31;101229.66;5170176;28;20412;-58
2022/06/06 04:13:23;;;;;;;25.67;14.73;;;;;;;16.25;65.20;101219.72;5157227;28;20509;-56
2022/06/06 04:16:08;;;;;;;31.75;15.40;;;;;;;16.32;65.33;101231.31;5169742;28;20987;-58
2022/06/06 04:18:52;;;;;;;28.10;14.48;;;;;;;16.33;65.38;101219.66;5170887;28;20423;-57
2022/06/06 04:21:36;;;;;;;29.05;13.65;;;;;;;16.36;65.15;101227.31;5170554;28;20526;-58
2022/06/06 04:24:33;;;;;;;29.17;13.03;;;;;;;16.31;65.26;101224.31;5179949;28;20500;-57
2022/06/06 04:27:14;;;;;;;31.17;13.93;;;;;;;16.33;65.39;101217.00;5173591;28;20475;-59
2022/06/06 04:29:58;;;;;;;28.93;15.23;;;;;;;16.38;65.30;101230.59;5171174;28;20509;-57
2022/06/06 04:32:50;;;;;;;27.90;14.68;;;;;;;16.36;65.44;101243.28;5167399;28;20426;-54
2022/06/06 04:35:30;;;;;;;27.45;13.75;;;;;;;16.31;65.28;101235.81;5170390;28;20429;-58
2022/06/06 04:38:11;;;;;;;27.95;14.20;;;;;;;16.32;65.39;101231.31;5167754;28;20540;-59
2022/06/06 04:40:54;;;;;;;26.40;13.60;;;;;;;16.33;65.33;101248.97;5175916;28;20437;-55
2022/06/06 04:43:36;;;;;;;24.67;13.18;;;;;;;16.33;65.45;101238.31;5176556;28;20413;-54
2022/06/06 04:46:18;;;;;;;19.40;11.73;;;;;;;16.31;65.48;101246.47;5171295;28;20539;-57
2022/06/06 04:48:53;;;;;;;22.40;11.95;;;;;;;16.34;65.47;101245.28;5172123;28;20435;-60
2022/06/06 04:51:26;;;;;;;22.48;11.32;;;;;;;16.30;65.34;101228.00;5173246;28;20420;-58
2022/06/06 04:54:00;;;;;;;20.58;11.77;;;;;;;16.39;65.25;101237.59;5172174;28;20415;-60
2022/06/06 04:56:34;;;;;;;22.30;12.35;;;;;;;16.42;65.35;101247.09;5172531;28;21135;-56
2022/06/06 04:59:10;;;;;;;24.80;11.32;;;;;;;16.45;65.33;101241.41;5174636;28;21027;-56
2022/06/06 05:01:43;;;;;;;23.48;13.07;;;;;;;16.44;65.11;101245.88;5171684;28;20425;-56
2022/06/06 05:04:16;;;;;;;21.23;11.00;;;;;;;16.47;65.20;101236.69;5171120;28;20508;-58
2022/06/06 05:07:30;;;;;;;21.15;11.35;;;;;;;16.50;65.21;101234.50;5171675;28;20417;-58
2022/06/06 05:10:18;;;;;;;22.33;11.18;;;;;;;16.57;65.01;101247.97;5165480;28;20764;-59
2022/06/06 05:13:31;;;;;;;20.05;10.10;;;;;;;16.81;64.99;101246.94;5174578;28;20776;-59
2022/06/06 05:16:25;;;;;;;19.65;9.38;;;;;;;17.03;64.96;101235.41;5155395;28;20431;-59
2022/06/06 05:19:31;;;;;;;16.67;9.27;;;;;;;17.09;64.86;101235.66;5141555;28;20413;-57
2022/06/06 05:22:19;;;;;;;13.23;8.02;;;;;;;17.23;64.69;101245.53;5156580;28;20769;-59
2022/06/06 05:25:08;;;;;;;20.58;8.48;;;;;;;17.20;64.59;101238.72;5179813;28;20427;-59
2022/06/06 05:28:04;;;;;;;16.25;8.32;;;;;;;17.19;64.54;101245.09;5169466;28;20423;-54
2022/06/06 05:30:48;;;;;;;16.02;8.85;;;;;;;17.15;64.58;101232.28;5165878;28;20420;-59
2022/06/06 05:33:30;;;;;;;15.48;9.70;;;;;;;17.13;64.37;101236.97;5177141;28;20439;-58
2022/06/06 05:36:37;;;;;;;18.73;9.90;;;;;;;17.04;64.28;101231.72;5164992;28;20541;-57
2022/06/06 05:39:38;;;;;;;20.53;10.80;;;;;;;16.98;64.23;101242.28;5170916;28;20490;-56
2022/06/06 05:42:31;;;;;;;19.35;9.93;;;;;;;16.96;64.24;101244.31;5167807;28;20435;-59
2022/06/06 05:45:16;;;;;;;14.82;9.15;;;;;;;16.96;64.18;101247.81;5168739;28;20421;-60
2022/06/06 05:48:02;;;;;;;16.60;8.32;;;;;;;17.02;64.16;101249.75;5169173;28;20848;-58
2022/06/06 05:50:48;;;;;;;17.48;6.20;;;;;;;17.02;64.28;101241.72;5172028;28;20457;-53
2022/06/06 05:53:55;;;;;;;14.20;5.95;;;;;;;17.10;64.16;101248.03;5177954;28;20460;-59
2022/06/06 05:57:08;;;;;;;12.25;5.85;;;;;;;17.00;64.08;101232.25;5150341;28;20777;-60
2022/06/06 06:00:17;;;;;;;14.30;4.97;;;;;;;17.11;63.98;101236.31;5148691;28;20462;-56
2022/06/06 06:03:52;;;;;;;10.67;5.00;;;;;;;17.17;64.00;101246.28;5170814;28;20405;-59
2022/06/06 06:06:33;;;;;;;12.00;5.10;;;;;;;17.20;63.78;101235.22;5157132;28;20488;-60
2022/06/06 06:09:24;;;;;;;19.60;5.05;;;;;;;17.22;63.68;101247.38;5164888;28;20817;-58
2022/06/06 06:12:19;;;;;;;12.27;4.95;;;;;;;17.19;63.63;101260.28;5172614;28;20411;-52
2022/06/06 06:15:03;;;;;;;14.45;5.25;;;;;;;17.26;63.61;101254.00;5166502;28;20417;-58
2022/06/06 06:17:38;;;;;;;11.93;4.47;;;;;;;17.39;63.37;101250.69;5164431;28;20413;-58
2022/06/06 06:20:16;;;;;;;12.48;4.90;;;;;;;17.43;63.09;101259.16;5175758;28;20434;-59
2022/06/06 06:22:55;;;;;;;9.93;3.97;;;;;;;17.50;62.91;101254.75;5163484;28;20760;-59
2022/06/06 06:25:28;;;;;;;12.25;4.03;;;;;;;17.52;62.81;101256.19;5169514;28;20471;-56
2022/06/06 06:28:06;;;;;;;13.05;4.38;;;;;;;17.58;62.95;101253.81;5177453;28;20539;-61
2022/06/06 06:31:03;;;;;;;17.67;5.22;;;;;;;17.85;62.59;101261.19;5185229;28;20425;-57
2022/06/06 06:33:51;;;;;;;11.27;3.90;;;;;;;17.88;62.36;101265.31;5182659;28;20423;-55
2022/06/06 06:36:43;;;;;;;6.30;3.53;;;;;;;18.00;62.36;101273.69;5188756;28;20420;-60
2022/06/06 06:39:37;;;;;;;9.80;3.22;;;;;;;18.33;61.93;101253.47;5185583;28;20851;-60
2022/06/06 06:42:28;;;;;;;9.25;2.90;;;;;;;18.55;61.63;101261.47;5185979;28;20419;-59
2022/06/06 06:45:07;;;;;;;10.73;3.88;;;;;;;19.03;61.50;101264.38;5181719;28;20506;-59
2022/06/06 06:47:41;;;;;;;8.25;3.28;;;;;;;19.47;60.87;101252.50;5185308;28;20512;-60
2022/06/06 06:50:20;;;;;;;10.75;3.40;;;;;;;19.56;60.23;101257.50;5182347;28;20482;-60
2022/06/06 06:53:19;;;;;;;10.80;3.05;;;;;;;19.51;60.26;101272.50;5185117;28;20443;-58
2022/06/06 06:56:02;;;;;;;7.25;2.75;;;;;;;19.30;60.29;101268.06;5180793;28;20630;-58
2022/06/06 06:58:53;;;;;;;9.65;3.17;;;;;;;19.31;60.18;101267.03;5175395;28;20430;-61
2022/06/06 07:01:36;;;;;;;9.27;3.33;;;;;;;20.17;59.51;101259.41;5178885;28;20954;-60
2022/06/06 07:10:23;;;;;;;9.95;2.28;;;;;;;23.19;56.27;101259.75;5166533;28;20409;-61
2022/06/06 07:13:21;;;;;;;11.15;2.50;;;;;;;23.36;55.84;101255.44;5175850;28;20391;-59
2022/06/06 07:15:59;;;;;;;7.03;2.28;;;;;;;23.00;55.78;101262.44;5169797;28;20416;-60
2022/06/06 07:18:37;;;;;;;14.75;2.63;;;;;;;22.52;55.95;101268.41;5157071;28;20428;-57
2022/06/06 07:21:13;;;;;;;8.15;2.40;;;;;;;21.96;56.05;101271.84;5169716;28;20496;-58
2022/06/06 07:23:48;;;;;;;9.52;3.45;;;;;;;21.87;56.30;101267.75;5173885;28;20431;-61
2022/06/06 07:26:22;;;;;;;15.10;3.43;;;;;;;21.40;56.31;101269.78;5170656;28;20428;-59
2022/06/06 07:28:55;;;;;;;10.88;2.72;;;;;;;20.87;56.40;101285.91;5172284;28;20419;-60
2022/06/06 07:31:39;;;;;;;9.70;3.08;;;;;;;20.56;56.65;101279.28;5167575;28;20424;-60
2022/06/06 07:34:47;;;;;;;12.75;2.95;;;;;;;20.69;56.67;101281.19;5172074;28;20924;-61
2022/06/06 07:37:40;;;;;;;11.45;2.28;;;;;;;21.30;56.42;101280.06;5174581;28;20395;-58
2022/06/06 07:40:28;;;;;;;12.07;2.97;;;;;;;22.12;55.85;101275.06;5175491;28;20421;-59
2022/06/06 07:43:23;;;;;;;13.77;2.10;;;;;;;22.82;54.77;101281.19;5175450;28;20512;-59
2022/06/06 07:46:06;;;;;;;12.40;2.20;;;;;;;23.16;54.44;101276.38;5186780;28;20504;-62
2022/06/06 07:48:51;;;;;;;9.15;2.00;;;;;;;23.08;54.18;101274.81;5172136;28;20891;-61
2022/06/06 07:51:38;;;;;;;11.50;2.15;;;;;;;22.74;54.22;101278.81;5169900;28;20416;-61
2022/06/06 07:54:28;;;;;;;9.60;2.07;;;;;;;22.71;54.19;101274.69;5164428;28;20503;-60
2022/06/06 07:57:12;;;;;;;9.32;1.75;;;;;;;22.58;54.17;101287.41;5166017;28;20494;-59
2022/06/06 08:00:05;;;;;;;7.75;1.70;;;;;;;22.56;53.88;101288.44;5184803;28;20442;-59
2022/06/06 08:02:56;;;;;;;10.00;2.30;;;;;;;22.64;53.63;101238.91;5183452;28;20403;-61
2022/06/06 08:06:20;;;;;;;8.50;1.77;;;;;;;22.84;53.22;101276.44;5166267;28;20477;-56
2022/06/06 08:09:14;;;;;;;8.80;1.95;;;;;;;22.61;52.75;101278.88;5171518;28;20453;-57
2022/06/06 08:12:09;;;;;;;11.70;2.40;;;;;;;22.19;52.90;101260.56;5184888;28;20407;-60
2022/06/06 08:14:57;;;;;;;7.22;1.73;;;;;;;22.13;53.42;101255.19;5170219;28;20455;-59
2022/06/06 08:17:45;;;;;;;7.45;2.15;;;;;;;22.27;53.33;101256.78;5179494;28;20410;-60
2022/06/06 08:20:24;;;;;;;8.05;2.17;;;;;;;22.42;52.56;101292.31;5178776;28;20474;-59
2022/06/06 08:23:02;;;;;;;7.00;1.77;;;;;;;22.13;52.44;101295.53;5165551;28;20425;-59
2022/06/06 08:25:37;;;;;;;10.23;2.47;;;;;;;21.64;52.66;101263.69;5169591;28;20417;-59
2022/06/06 08:28:12;;;;;;;5.30;1.70;;;;;;;21.45;52.78;101291.44;5170416;28;20419;-59
2022/06/06 08:30:47;;;;;;;10.32;2.10;;;;;;;21.11;52.87;101273.72;5174944;28;20780;-59
2022/06/06 08:33:20;;;;;;;7.28;1.80;;;;;;;21.18;53.10;101274.50;5174511;28;20416;-54
2022/06/06 08:36:09;;;;;;;5.28;1.67;;;;;;;21.35;52.69;101269.53;5177991;28;20506;-59
2022/06/06 08:38:54;;;;;;;6.50;1.67;;;;;;;21.63;52.28;101294.28;5173284;28;20421;-61
2022/06/06 08:42:03;;;;;;;12.50;2.17;;;;;;;21.69;51.83;101281.03;5171249;28;20805;-53
2022/06/06 08:44:52;;;;;;;11.48;2.20;;;;;;;21.59;51.71;101293.06;5171856;28;20833;-60
2022/06/06 08:47:44;;;;;;;9.65;2.00;;;;;;;21.53;51.67;101271.59;5169151;28;20809;-59
2022/06/06 08:50:45;;;;;;;7.40;2.10;;;;;;;21.39;51.96;101270.78;5172025;28;20896;-59
2022/06/06 08:54:04;;;;;;;11.45;2.22;;;;;;;21.29;51.63;101270.38;5170964;28;20507;-59
2022/06/06 08:57:31;;;;;;;10.20;2.63;;;;;;;21.11;51.61;101274.53;5176663;28;20414;-60
2022/06/06 09:00:20;;;;;;;10.52;2.42;;;;;;;20.96;51.67;101276.63;5180623;28;20406;-60
2022/06/06 09:03:52;;;;;;;6.35;1.90;;;;;;;20.95;51.59;101278.47;5187255;28;20469;-61
2022/06/06 09:07:22;;;;;;;10.25;2.13;;;;;;;20.67;51.72;101227.69;5180249;28;20441;-59
2022/06/06 09:10:40;;;;;;;15.38;3.13;;;;;;;20.79;51.71;101278.09;5171729;28;20876;-58
2022/06/06 09:14:07;;;;;;;7.40;2.72;;;;;;;20.26;51.91;101215.25;5182957;28;20871;-56
2022/06/06 09:17:05;;;;;;;12.60;2.60;;;;;;;20.32;52.14;101269.13;5191601;28;20505;-53
2022/06/06 09:20:31;;;;;;;10.63;2.60;;;;;;;20.30;52.13;101273.88;5176489;28;20479;-51
2022/06/06 09:23:30;;;;;;;9.73;2.65;;;;;;;20.40;51.97;101276.97;5134019;28;20570;-52
2022/06/06 09:26:17;;;;;;;8.30;2.83;;;;;;;20.49;51.95;101270.38;5173861;28;20499;-55
2022/06/06 09:29:50;;;;;;;6.70;2.30;;;;;;;20.54;51.89;101277.88;5182069;28;20819;-55
2022/06/06 09:33:22;;;;;;;8.93;2.40;;;;;;;20.66;51.68;101265.50;5185089;28;20526;-55
2022/06/06 09:36:15;;;;;;;10.27;2.33;;;;;;;20.66;51.42;101260.94;5121032;28;20537;-51
2022/06/06 09:39:03;;;;;;;8.43;1.77;;;;;;;20.62;51.42;101278.47;5188063;28;20476;-56
2022/06/06 09:41:48;;;;;;;8.73;1.90;;;;;;;20.64;51.35;101267.53;5172363;28;20782;-55
2022/06/06 09:44:45;;;;;;;10.10;2.25;;;;;;;20.56;51.16;101271.22;5180652;28;20931;-57
2022/06/06 09:47:58;;;;;;;8.20;2.20;;;;;;;20.42;51.37;101265.00;5183225;28;20425;-59
2022/06/06 09:50:59;;;;;;;13.77;2.70;;;;;;;20.47;51.31;101267.91;5176688;28;20863;-53
2022/06/06 10:00:20;;;;;;;7.78;2.30;;;;;;;20.54;51.18;101257.22;5237845;27;20452;-52
2022/06/06 10:03:36;;;;;;;11.00;2.60;;;;;;;20.73;50.92;101261.75;5247493;28;20873;-47
2022/06/06 10:06:43;;;;;;;6.50;2.08;;;;;;;20.84;50.65;101256.78;5246810;27;20528;-52
2022/06/06 10:09:46;;;;;;;7.88;2.13;;;;;;;20.94;50.56;101254.53;5244097;27;20545;-52
2022/06/06 10:12:46;;;;;;;11.18;2.45;;;;;;;20.87;50.65;101256.38;5239976;28;20403;-51
2022/06/06 10:15:40;;;;;;;9.43;1.90;;;;;;;20.83;50.57;101247.09;5240490;28;21220;-54
2022/06/06 10:18:59;;;;;;;16.27;3.08;;;;;;;20.94;50.43;101258.03;5238136;27;20411;-54
2022/06/06 10:22:16;;;;;;;11.65;2.42;;;;;;;20.96;50.30;101228.28;5232196;28;20417;-52
2022/06/06 10:25:43;;;;;;;6.07;1.73;;;;;;;21.10;50.12;101248.72;5225488;28;20403;-52
2022/06/06 10:28:42;;;;;;;8.18;2.35;;;;;;;20.87;50.33;101225.00;5226986;28;20506;-51
2022/06/06 10:31:38;;;;;;;7.93;2.50;;;;;;;20.96;50.20;101239.84;5242227;27;20403;-55
2022/06/06 10:34:30;;;;;;;7.95;2.20;;;;;;;20.96;50.41;101239.84;5234634;27;20478;-49
2022/06/06 10:37:37;;;;;;;11.25;3.15;;;;;;;21.00;50.21;101239.41;5236215;27;20576;-52
2022/06/06 10:40:48;;;;;;;13.15;2.80;;;;;;;20.80;50.09;101202.69;5232308;27;20518;-51
2022/06/06 10:43:56;;;;;;;7.27;1.93;;;;;;;20.90;50.26;101234.47;5225609;28;20446;-54
2022/06/06 10:46:40;;;;;;;13.80;2.58;;;;;;;20.85;50.15;101231.63;5229961;27;20417;-56
2022/06/06 10:49:26;;;;;;;10.43;2.93;;;;;;;20.76;50.19;101244.41;5243119;27;20511;-55
2022/06/06 10:52:52;;;;;;;8.23;2.25;;;;;;;20.54;50.50;101248.34;5237861;27;20811;-54
2022/06/06 10:55:55;;;;;;;8.80;2.70;;;;;;;20.15;50.88;101258.75;5239300;27;20476;-51
2022/06/06 10:59:24;;;;;;;8.23;2.40;;;;;;;19.86;51.33;101264.47;5236531;27;20546;-42
2022/06/06 11:02:45;;;;;;;9.57;3.05;;;;;;;19.74;51.55;101272.25;5234635;27;20480;-52
2022/06/06 11:06:26;;;;;;;12.43;3.50;;;;;;;19.55;52.03;101257.69;5235442;27;20419;-48
2022/06/06 11:09:25;;;;;;;10.20;3.47;;;;;;;19.44;52.40;101259.06;5213934;28;20443;-54
2022/06/06 11:12:44;;;;;;;11.25;2.97;;;;;;;19.26;52.40;101235.50;5218427;28;20539;-45
2022/06/06 11:15:18;;;;;;;10.27;2.67;;;;;;;19.24;52.70;101258.16;5172591;28;20410;-52
2022/06/06 11:18:15;;;;;;;8.25;2.80;;;;;;;18.95;53.01;101214.50;5221753;28;20429;-51
2022/06/06 11:21:25;;;;;;;12.13;2.85;;;;;;;19.15;53.32;101256.66;5218122;28;20915;-51
2022/06/06 11:24:09;;;;;;;8.40;3.00;;;;;;;19.06;53.39;101250.63;5223827;28;20473;-51
2022/06/06 11:27:15;;;;;;;14.93;3.67;;;;;;;19.04;53.59;101239.25;5219618;28;20465;-50
2022/06/06 11:30:34;;;;;;;12.13;3.20;;;;;;;19.15;53.54;101236.06;5216430;28;22802;-52
2022/06/06 11:34:02;;;;;;;11.03;3.50;;;;;;;19.17;53.78;101239.38;5221879;28;20574;-48
2022/06/06 11:37:29;;;;;;;9.60;3.22;;;;;;;19.30;53.83;101239.44;5192129;28;20977;-50
2022/06/06 11:41:03;;;;;;;9.43;2.95;;;;;;;19.28;53.83;101235.28;5208641;28;20805;-51
2022/06/06 11:44:13;;;;;;;11.70;2.80;;;;;;;19.27;54.13;101234.47;5149539;28;20785;-52
2022/06/06 11:47:14;;;;;;;9.75;3.22;;;;;;;19.27;54.12;101239.84;5156007;28;20537;-52
2022/06/06 11:50:45;;;;;;;6.40;2.38;;;;;;;19.24;54.18;101229.50;5216379;28;20444;-51
2022/06/06 11:54:27;;;;;;;7.65;2.45;;;;;;;19.12;54.18;101236.44;5225384;28;30086;-51
2022/06/06 11:57:39;;;;;;;10.13;2.47;;;;;;;19.12;54.44;101237.25;5134762;28;20490;-50
2022/06/06 12:00:22;;;;;;;5.80;2.67;;;;;;;19.21;54.39;101237.94;5114812;28;20443;-51
2022/06/06 12:03:46;;;;;;;10.65;3.15;;;;;;;19.30;54.34;101231.41;5216178;28;20424;-51
2022/06/06 12:06:57;;;;;;;6.13;2.60;;;;;;;19.34;54.38;101224.63;5223011;28;20541;-51
2022/06/06 12:09:45;;;;;;;7.45;2.22;;;;;;;19.30;54.35;101236.75;5190910;28;20525;-52
2022/06/06 12:13:11;;;;;;;8.52;2.40;;;;;;;19.13;54.62;101227.38;5223032;28;21086;-51
2022/06/06 12:16:22;;;;;;;7.65;2.75;;;;;;;18.97;55.00;101233.03;5215960;28;20424;-48
2022/06/06 12:19:42;;;;;;;4.53;2.33;;;;;;;18.91;55.19;101231.16;5216769;28;20638;-49
2022/06/06 12:22:39;;;;;;;5.37;2.30;;;;;;;18.91;55.18;101226.63;5197357;28;20542;-49
2022/06/06 12:25:50;;;;;;;4.65;2.20;;;;;;;18.97;54.99;101227.69;5221859;28;20930;-49
2022/06/06 12:29:04;;;;;;;7.80;2.63;;;;;;;18.93;55.26;101232.63;5205150;28;20489;-52
2022/06/06 12:32:10;;;;;;;5.85;2.08;;;;;;;18.81;55.28;101218.94;5225713;28;20491;-51
2022/06/06 12:34:52;;;;;;;6.30;2.80;;;;;;;18.70;55.38;101210.56;5220782;28;20492;-51
2022/06/06 12:37:31;;;;;;;5.70;2.80;;;;;;;18.77;55.39;101225.72;5219039;28;20468;-49
2022/06/06 12:40:15;;;;;;;4.65;2.88;;;;;;;18.71;55.24;101209.56;5211635;28;20484;-50
2022/06/06 12:43:00;;;;;;;5.43;2.55;;;;;;;18.58;55.69;101213.81;5219798;28;20415;-49
2022/06/06 12:45:58;;;;;;;5.72;2.63;;;;;;;18.54;55.96;101223.22;5224685;28;20505;-49
2022/06/06 12:49:16;;;;;;;5.03;2.22;;;;;;;18.43;56.07;101211.19;5215110;28;20406;-51
2022/06/06 12:52:08;;;;;;;4.97;2.28;;;;;;;18.43;56.21;101218.41;5221994;28;20857;-54
2022/06/06 12:55:37;;;;;;;2.53;1.70;;;;;;;18.39;56.30;101215.25;5218347;28;20761;-49
2022/06/06 12:58:33;;;;;;;5.85;1.98;;;;;;;18.32;56.34;101222.41;5219480;28;21096;-48
2022/06/06 13:04:28;;;;;;;3.75;1.48;;;;;;;18.26;56.53;101215.16;5220229;28;20423;-50
2022/06/06 13:07:17;;;;;;;4.60;1.80;;;;;;;18.23;56.53;101210.19;5218576;28;20514;-48
2022/06/06 13:10:18;;;;;;;3.15;1.35;;;;;;;17.98;56.63;101180.31;5219018;28;20920;-50
2022/06/06 13:13:15;;;;;;;3.85;1.50;;;;;;;18.18;56.85;101224.13;5217623;28;20419;-50
2022/06/06 13:15:54;;;;;;;2.53;1.00;;;;;;;18.12;57.15;101230.25;5218621;28;21867;-48
2022/06/06 13:18:53;;;;;;;2.20;0.95;;;;;;;18.09;57.18;101229.78;5217797;28;20403;-53
2022/06/06 13:21:47;;;;;;;4.25;1.20;;;;;;;18.01;57.23;101237.91;5208625;28;20663;-51
2022/06/06 13:24:43;;;;;;;3.50;1.60;;;;;;;18.05;57.30;101231.16;5217387;28;20414;-50
2022/06/06 13:27:27;;;;;;;3.50;1.23;;;;;;;17.97;57.30;101238.28;5224698;28;20502;-47